Time;durP1;ratioP1;P1;durP2;ratioP2;P2;SDS_P1;SDS_P2;PMS_P1;PMS_P2;Temp;Humidity;BMP_temperature;BMP_pressure;BME280_temperature;BME280_humidity;BME280_pressure;Samples;Min_cycle;Max_cycle;Signal;HPM_P1;HPM_P2
2021/06/07 00:01:23;;;;;;;5.30;3.20;;;13.10;87.70;;;;;;5053602;28;20133;-72
2021/06/07 00:03:49;;;;;;;7.60;3.57;;;13.10;87.80;;;;;;5053875;28;20061;-72
2021/06/07 00:06:16;;;;;;;7.83;3.77;;;13.10;88.00;;;;;;5052589;28;20132;-72
2021/06/07 00:08:42;;;;;;;7.00;3.80;;;13.10;88.10;;;;;;5053281;28;20098;-71
2021/06/07 00:11:09;;;;;;;6.23;3.77;;;13.00;88.20;;;;;;5053273;28;20057;-72
2021/06/07 00:13:36;;;;;;;5.00;3.80;;;13.00;88.30;;;;;;5052666;28;20448;-70
2021/06/07 00:16:02;;;;;;;4.50;4.10;;;13.00;88.40;;;;;;5053377;28;20045;-70
2021/06/07 00:18:28;;;;;;;7.20;4.47;;;13.00;88.70;;;;;;5053046;28;20363;-70
2021/06/07 00:21:09;;;;;;;8.47;4.47;;;13.00;88.80;;;;;;5052646;28;20068;-71
2021/06/07 00:23:35;;;;;;;7.20;4.03;;;13.00;88.80;;;;;;5052681;28;20328;-70
2021/06/07 00:26:03;;;;;;;7.80;4.13;;;13.00;88.90;;;;;;5052746;28;20048;-71
2021/06/07 00:28:28;;;;;;;7.03;4.03;;;13.00;89.00;;;;;;5052500;28;20060;-70
2021/06/07 00:30:56;;;;;;;7.57;5.03;;;12.90;88.90;;;;;;5053190;28;20052;-70
2021/06/07 00:33:21;;;;;;;8.57;4.63;;;13.00;89.00;;;;;;5051771;28;20052;-70
2021/06/07 00:35:47;;;;;;;6.13;4.87;;;12.90;89.00;;;;;;5052764;28;20390;-70
2021/06/07 00:38:13;;;;;;;7.60;4.67;;;12.90;89.10;;;;;;5052691;28;20041;-70
2021/06/07 00:40:39;;;;;;;8.37;5.23;;;12.90;89.20;;;;;;5052271;28;20120;-70
2021/06/07 00:43:05;;;;;;;6.73;4.90;;;12.90;89.20;;;;;;5052895;28;20049;-70
2021/06/07 00:45:34;;;;;;;8.27;4.83;;;12.80;89.30;;;;;;5052724;28;20056;-71
2021/06/07 00:48:02;;;;;;;6.70;4.77;;;12.80;89.40;;;;;;5051958;28;20452;-70
2021/06/07 00:50:37;;;;;;;7.60;5.20;;;12.70;89.60;;;;;;5052375;28;20132;-70
2021/06/07 00:53:06;;;;;;;6.90;4.97;;;12.70;89.70;;;;;;5052570;28;20052;-71
2021/06/07 00:55:42;;;;;;;6.67;4.93;;;12.70;89.80;;;;;;5051572;28;20114;-71
2021/06/07 00:58:09;;;;;;;6.50;4.57;;;12.70;89.80;;;;;;5052574;28;20053;-70
2021/06/07 01:00:37;;;;;;;5.97;4.77;;;12.70;89.80;;;;;;5052318;28;20129;-70
2021/06/07 01:03:04;;;;;;;8.07;4.53;;;12.70;89.80;;;;;;5051966;28;20358;-71
2021/06/07 01:05:30;;;;;;;9.67;4.47;;;12.70;89.80;;;;;;5051894;28;20389;-71
2021/06/07 01:07:56;;;;;;;4.53;3.90;;;12.70;89.70;;;;;;5051838;28;20064;-71
2021/06/07 01:10:24;;;;;;;4.97;4.17;;;12.70;89.70;;;;;;5051898;28;20106;-71
2021/06/07 01:12:50;;;;;;;5.40;4.40;;;12.70;89.70;;;;;;5052476;28;20132;-70
2021/06/07 01:15:17;;;;;;;7.53;4.37;;;12.70;89.70;;;;;;5051175;28;20425;-71
2021/06/07 01:17:43;;;;;;;5.63;4.60;;;12.70;89.50;;;;;;5052308;28;20103;-71
2021/06/07 01:20:11;;;;;;;6.43;4.60;;;12.70;89.60;;;;;;5052181;28;20113;-70
2021/06/07 01:22:38;;;;;;;6.23;4.67;;;12.70;89.60;;;;;;5051460;28;20045;-70
2021/06/07 01:25:09;;;;;;;9.90;5.27;;;12.80;89.60;;;;;;5051981;28;20048;-70
2021/06/07 01:27:35;;;;;;;5.63;5.03;;;12.70;89.50;;;;;;5051226;28;20057;-70
2021/06/07 01:30:05;;;;;;;6.03;5.37;;;12.70;89.60;;;;;;5051124;28;20056;-70
2021/06/07 01:32:31;;;;;;;7.77;5.23;;;12.70;89.70;;;;;;5051880;28;20132;-70
2021/06/07 01:34:57;;;;;;;9.87;5.57;;;12.70;89.80;;;;;;5051971;28;20098;-70
2021/06/07 01:37:22;;;;;;;6.43;5.83;;;12.60;89.90;;;;;;5050700;28;20064;-70
2021/06/07 01:39:48;;;;;;;6.10;5.50;;;12.60;90.00;;;;;;5051793;28;20048;-70
2021/06/07 01:42:14;;;;;;;7.60;5.27;;;12.50;90.00;;;;;;5051632;28;20053;-70
2021/06/07 01:44:39;;;;;;;6.47;5.13;;;12.50;90.00;;;;;;5051296;28;20113;-70
2021/06/07 01:47:05;;;;;;;6.00;5.40;;;12.50;90.10;;;;;;5051791;28;20056;-70
2021/06/07 01:49:30;;;;;;;6.33;5.10;;;12.50;90.10;;;;;;5051434;28;20041;-70
2021/06/07 01:51:56;;;;;;;6.13;4.80;;;12.50;90.10;;;;;;5050804;28;20081;-70
2021/06/07 01:54:22;;;;;;;7.43;5.60;;;12.50;90.10;;;;;;5051141;28;20091;-70
2021/06/07 01:56:48;;;;;;;6.77;5.60;;;12.40;90.20;;;;;;5051381;28;20118;-70
2021/06/07 01:59:14;;;;;;;8.17;5.60;;;12.40;90.20;;;;;;5050655;28;20049;-70
2021/06/07 02:01:39;;;;;;;6.37;5.33;;;12.50;90.20;;;;;;5051501;28;20449;-70
2021/06/07 02:04:05;;;;;;;6.70;5.20;;;12.50;90.30;;;;;;5050968;28;20076;-70
2021/06/07 02:06:32;;;;;;;6.13;5.53;;;12.40;90.20;;;;;;5050992;28;20127;-70
2021/06/07 02:08:59;;;;;;;6.23;5.30;;;12.40;90.30;;;;;;5051032;28;20072;-70
2021/06/07 02:11:28;;;;;;;7.37;5.50;;;12.50;90.20;;;;;;5050476;28;20048;-70
2021/06/07 02:13:57;;;;;;;5.80;5.00;;;12.40;90.20;;;;;;5051232;28;20048;-70
2021/06/07 02:16:26;;;;;;;6.33;5.00;;;12.40;90.20;;;;;;5050204;28;20044;-70
2021/06/07 02:18:52;;;;;;;9.07;5.10;;;12.40;90.30;;;;;;5050356;28;20458;-70
2021/06/07 02:21:21;;;;;;;7.10;5.43;;;12.40;90.30;;;;;;5051026;28;20051;-70
2021/06/07 02:23:47;;;;;;;7.17;5.67;;;12.40;90.30;;;;;;5051040;28;20057;-70
2021/06/07 02:26:13;;;;;;;7.60;5.33;;;12.40;90.30;;;;;;5050138;28;20037;-70
2021/06/07 02:28:46;;;;;;;8.57;5.90;;;12.40;90.40;;;;;;5051002;28;20048;-70
2021/06/07 02:31:11;;;;;;;6.90;5.67;;;12.40;90.40;;;;;;5051200;28;20053;-70
2021/06/07 02:33:37;;;;;;;9.20;5.43;;;12.40;90.40;;;;;;5049958;28;20056;-70
2021/06/07 02:36:03;;;;;;;9.73;6.13;;;12.30;90.40;;;;;;5051089;28;20099;-70
2021/06/07 02:38:29;;;;;;;9.07;5.90;;;12.40;90.50;;;;;;5050751;28;20079;-70
2021/06/07 02:40:54;;;;;;;6.80;5.63;;;12.30;90.50;;;;;;5050228;28;20122;-70
2021/06/07 02:43:20;;;;;;;7.07;6.10;;;12.30;90.50;;;;;;5050563;28;20049;-70
2021/06/07 02:45:46;;;;;;;10.60;6.20;;;12.30;90.50;;;;;;5050820;28;20143;-70
2021/06/07 02:48:12;;;;;;;6.80;5.57;;;12.40;90.60;;;;;;5050235;28;20044;-70
2021/06/07 02:50:41;;;;;;;8.40;5.70;;;12.40;90.50;;;;;;5050720;28;20390;-70
2021/06/07 02:53:07;;;;;;;9.60;5.63;;;12.40;90.60;;;;;;5050807;28;20128;-69
2021/06/07 02:55:36;;;;;;;7.33;6.17;;;12.40;90.60;;;;;;5049866;28;20417;-70
2021/06/07 02:58:04;;;;;;;7.40;5.50;;;12.40;90.50;;;;;;5050686;28;20075;-70
2021/06/07 03:00:43;;;;;;;7.33;5.07;;;12.40;90.60;;;;;;5049565;28;20170;-70
2021/06/07 03:03:10;;;;;;;8.67;5.10;;;12.40;90.50;;;;;;5050391;28;20140;-70
2021/06/07 03:05:37;;;;;;;6.40;5.70;;;12.40;90.50;;;;;;5050424;28;20072;-70
2021/06/07 03:08:05;;;;;;;8.30;5.60;;;12.40;90.40;;;;;;5049875;28;20063;-70
2021/06/07 03:10:31;;;;;;;6.80;5.80;;;12.40;90.40;;;;;;5050274;28;20446;-70
2021/06/07 03:12:58;;;;;;;7.30;5.77;;;12.40;90.40;;;;;;5050319;28;20506;-70
2021/06/07 03:15:24;;;;;;;7.90;5.20;;;12.40;90.40;;;;;;5049445;28;20044;-70
2021/06/07 03:17:52;;;;;;;7.53;5.60;;;12.40;90.40;;;;;;5050470;28;20041;-70
2021/06/07 03:20:22;;;;;;;7.57;6.10;;;12.40;90.40;;;;;;5050303;28;20068;-70
2021/06/07 03:22:48;;;;;;;6.43;5.20;;;12.40;90.40;;;;;;5049400;28;20561;-70
2021/06/07 03:25:14;;;;;;;7.33;5.47;;;12.40;90.40;;;;;;5050298;28;20148;-70
2021/06/07 03:27:41;;;;;;;9.57;6.13;;;12.30;90.40;;;;;;5051469;28;20053;-70
2021/06/07 03:30:09;;;;;;;6.43;5.10;;;12.30;90.50;;;;;;5053231;28;20455;-69
2021/06/07 03:32:36;;;;;;;8.20;5.47;;;12.40;90.50;;;;;;5054087;28;20134;-70
2021/06/07 03:35:06;;;;;;;5.87;5.03;;;12.40;90.50;;;;;;5054224;28;20049;-70
2021/06/07 03:37:32;;;;;;;7.73;5.37;;;12.40;90.60;;;;;;5053328;28;20390;-70
2021/06/07 03:39:57;;;;;;;8.40;5.40;;;12.40;90.60;;;;;;5054010;28;20064;-70
2021/06/07 03:42:23;;;;;;;7.60;5.10;;;12.40;90.60;;;;;;5053800;28;20387;-70
2021/06/07 03:44:49;;;;;;;7.10;5.30;;;12.50;90.50;;;;;;5053167;28;20051;-70
2021/06/07 03:47:14;;;;;;;5.83;5.00;;;12.50;90.50;;;;;;5053503;28;20053;-71
2021/06/07 03:49:40;;;;;;;6.20;5.50;;;12.50;90.50;;;;;;5053016;28;20101;-70
2021/06/07 03:52:06;;;;;;;8.10;5.80;;;12.50;90.60;;;;;;5053872;28;20098;-70
2021/06/07 03:54:32;;;;;;;7.83;5.30;;;12.40;90.60;;;;;;5053873;28;20083;-70
2021/06/07 03:56:57;;;;;;;6.20;5.50;;;12.40;90.70;;;;;;5053008;28;20768;-70
2021/06/07 03:59:23;;;;;;;6.77;5.47;;;12.40;90.70;;;;;;5053309;28;20462;-70
2021/06/07 04:01:49;;;;;;;6.17;5.50;;;12.40;90.70;;;;;;5053923;28;20060;-70
2021/06/07 04:04:15;;;;;;;8.13;5.57;;;12.40;90.70;;;;;;5052572;28;20505;-70
2021/06/07 04:06:40;;;;;;;8.63;5.83;;;12.40;90.80;;;;;;5053339;28;20059;-70
2021/06/07 04:09:06;;;;;;;6.57;5.47;;;12.40;90.80;;;;;;5053794;28;20099;-70
2021/06/07 04:11:32;;;;;;;9.77;6.27;;;12.40;90.80;;;;;;5052655;28;20090;-70
2021/06/07 04:13:58;;;;;;;7.67;5.60;;;12.40;90.90;;;;;;5053379;28;20071;-70
2021/06/07 04:16:23;;;;;;;10.00;6.13;;;12.40;90.90;;;;;;5053326;28;20398;-70
2021/06/07 04:18:49;;;;;;;8.23;5.97;;;12.40;90.90;;;;;;5052720;28;20045;-70
2021/06/07 04:21:15;;;;;;;8.53;5.93;;;12.40;91.00;;;;;;5053184;28;20045;-70
2021/06/07 04:23:40;;;;;;;7.97;5.67;;;12.40;91.00;;;;;;5053186;28;20056;-70
2021/06/07 04:26:06;;;;;;;8.67;5.90;;;12.40;91.00;;;;;;5052299;28;20067;-70
2021/06/07 04:28:33;;;;;;;8.80;6.37;;;12.50;91.00;;;;;;5052738;28;20099;-70
2021/06/07 04:31:00;;;;;;;9.77;6.90;;;12.60;91.00;;;;;;5053142;28;20049;-70
2021/06/07 04:33:26;;;;;;;9.37;6.60;;;12.60;91.00;;;;;;5052138;28;20076;-70
2021/06/07 04:35:52;;;;;;;9.63;7.00;;;12.70;91.30;;;;;;5053183;28;20489;-70
2021/06/07 04:38:17;;;;;;;9.93;6.50;;;12.70;90.90;;;;;;5052588;28;20048;-70
2021/06/07 04:40:44;;;;;;;6.97;5.53;;;12.70;90.80;;;;;;5051671;28;20512;-70
2021/06/07 04:43:12;;;;;;;7.13;6.07;;;12.70;90.90;;;;;;5052710;28;20053;-70
2021/06/07 04:45:41;;;;;;;9.97;6.17;;;12.90;91.10;;;;;;5052891;28;20063;-70
2021/06/07 04:48:07;;;;;;;9.97;6.40;;;13.00;90.90;;;;;;5052261;28;20057;-70
2021/06/07 04:50:33;;;;;;;11.13;7.20;;;13.00;90.70;;;;;;5052403;28;20065;-70
2021/06/07 04:53:00;;;;;;;8.40;6.00;;;13.00;90.70;;;;;;5052014;28;20051;-70
2021/06/07 04:55:55;;;;;;;12.30;6.53;;;13.00;90.80;;;;;;5034457;28;20056;-70
2021/06/07 04:58:29;;;;;;;8.90;6.43;;;13.00;90.90;;;;;;5031563;28;20429;-70
2021/06/07 05:01:00;;;;;;;9.57;6.33;;;13.00;90.90;;;;;;5051972;28;20064;-70
2021/06/07 05:03:27;;;;;;;9.57;6.43;;;13.00;91.00;;;;;;5052470;28;20060;-70
2021/06/07 05:05:54;;;;;;;11.33;6.87;;;13.00;90.90;;;;;;5052634;28;20446;-70
2021/06/07 05:08:19;;;;;;;8.33;6.23;;;13.00;90.90;;;;;;5051194;28;20049;-70
2021/06/07 05:10:45;;;;;;;8.60;6.50;;;13.10;91.00;;;;;;5052324;28;20377;-70
2021/06/07 05:13:11;;;;;;;8.03;6.60;;;13.10;91.20;;;;;;5052461;28;20116;-70
2021/06/07 05:15:37;;;;;;;8.07;5.57;;;13.30;91.10;;;;;;5051170;28;20048;-70
2021/06/07 05:18:03;;;;;;;8.07;6.33;;;13.30;91.10;;;;;;5052155;28;20067;-70
2021/06/07 05:20:29;;;;;;;11.20;6.50;;;13.50;91.00;;;;;;5051765;28;20049;-70
2021/06/07 05:22:57;;;;;;;7.63;6.13;;;13.60;91.30;;;;;;5051093;28;20055;-70
2021/06/07 05:25:24;;;;;;;8.70;7.03;;;13.60;90.80;;;;;;5051418;28;20443;-70
2021/06/07 05:27:51;;;;;;;9.87;6.97;;;13.60;90.80;;;;;;5051957;28;20469;-70
2021/06/07 05:30:18;;;;;;;7.03;6.17;;;13.60;90.90;;;;;;5050526;28;20056;-70
2021/06/07 05:32:45;;;;;;;9.77;6.63;;;13.60;90.90;;;;;;5052260;28;20048;-70
2021/06/07 05:35:12;;;;;;;11.13;6.23;;;13.70;91.00;;;;;;5051286;28;20485;-70
2021/06/07 05:37:38;;;;;;;8.33;6.60;;;13.70;90.90;;;;;;5051529;28;20150;-70
2021/06/07 05:40:06;;;;;;;7.43;6.47;;;13.90;90.90;;;;;;5051754;28;20083;-70
2021/06/07 05:42:32;;;;;;;7.50;6.73;;;13.90;90.80;;;;;;5050713;28;20049;-70
2021/06/07 05:44:58;;;;;;;9.37;7.07;;;14.00;90.90;;;;;;5051636;28;20357;-70
2021/06/07 05:47:23;;;;;;;11.90;6.70;;;14.00;90.80;;;;;;5051557;28;20048;-70
2021/06/07 05:49:49;;;;;;;6.70;6.07;;;14.00;90.80;;;;;;5049555;28;20160;-68
2021/06/07 05:52:15;;;;;;;7.83;5.77;;;14.10;90.80;;;;;;5050321;28;20041;-69
2021/06/07 05:54:41;;;;;;;10.40;5.70;;;14.10;90.70;;;;;;5051541;28;20129;-69
2021/06/07 05:57:08;;;;;;;7.13;5.50;;;14.20;91.00;;;;;;5051073;28;20037;-70
2021/06/07 05:59:36;;;;;;;7.60;6.17;;;14.30;90.60;;;;;;5051138;28;20132;-69
2021/06/07 06:02:13;;;;;;;6.73;5.23;;;14.40;90.50;;;;;;5051346;28;20049;-69
2021/06/07 06:04:42;;;;;;;8.80;5.60;;;14.50;90.20;;;;;;5050284;28;20048;-69
2021/06/07 06:07:08;;;;;;;7.00;5.03;;;14.50;89.90;;;;;;5051072;28;20375;-69
2021/06/07 06:09:33;;;;;;;7.47;5.73;;;14.60;89.60;;;;;;5050584;28;20084;-70
2021/06/07 06:12:00;;;;;;;6.87;5.50;;;14.60;89.30;;;;;;5050501;28;20073;-69
2021/06/07 06:14:26;;;;;;;7.43;6.27;;;14.60;88.80;;;;;;5050684;28;20098;-69
2021/06/07 06:16:53;;;;;;;7.97;6.37;;;14.60;88.90;;;;;;5050129;28;20055;-70
2021/06/07 06:19:19;;;;;;;9.30;6.70;;;14.60;89.10;;;;;;5049925;28;20090;-69
2021/06/07 06:21:45;;;;;;;9.30;6.53;;;14.60;89.20;;;;;;5050545;28;20045;-69
2021/06/07 06:24:12;;;;;;;9.93;6.10;;;14.70;89.40;;;;;;5051135;28;20135;-68
2021/06/07 06:26:40;;;;;;;10.03;6.00;;;14.70;89.40;;;;;;5050369;28;20061;-70
2021/06/07 06:29:07;;;;;;;7.13;5.57;;;14.80;88.90;;;;;;5050729;28;20103;-69
2021/06/07 06:31:34;;;;;;;8.67;5.37;;;14.90;88.70;;;;;;5049682;28;20079;-69
2021/06/07 06:34:00;;;;;;;8.57;5.50;;;14.90;88.20;;;;;;5051097;28;20048;-70
2021/06/07 06:36:27;;;;;;;8.67;4.73;;;15.00;87.80;;;;;;5050621;28;20063;-69
2021/06/07 06:38:53;;;;;;;8.27;4.93;;;15.00;87.70;;;;;;5049966;28;20048;-69
2021/06/07 06:41:18;;;;;;;5.80;4.30;;;15.10;87.50;;;;;;5050183;28;20117;-69
2021/06/07 06:43:44;;;;;;;8.27;4.97;;;15.20;87.10;;;;;;5050333;28;20546;-70
2021/06/07 06:46:10;;;;;;;5.83;3.03;;;15.30;86.80;;;;;;5049521;28;20382;-70
2021/06/07 06:48:36;;;;;;;4.13;2.37;;;15.30;86.00;;;;;;5050717;28;20087;-70
2021/06/07 06:51:04;;;;;;;3.70;1.97;;;15.40;84.70;;;;;;5050257;28;20049;-69
2021/06/07 06:53:29;;;;;;;3.90;2.00;;;15.50;83.40;;;;;;5049711;28;20080;-69
2021/06/07 06:55:55;;;;;;;3.60;1.80;;;15.60;82.30;;;;;;5050240;28;20163;-68
2021/06/07 06:58:22;;;;;;;4.37;2.20;;;15.70;81.50;;;;;;5050104;28;20136;-68
2021/06/07 07:00:48;;;;;;;4.23;2.40;;;15.80;81.10;;;;;;5049466;28;20049;-69
2021/06/07 07:03:18;;;;;;;6.40;1.90;;;15.80;80.50;;;;;;5052802;28;20045;-69
2021/06/07 07:05:44;;;;;;;3.70;1.67;;;15.90;79.70;;;;;;5054916;28;20053;-69
2021/06/07 07:08:11;;;;;;;4.37;1.87;;;15.90;78.60;;;;;;5053949;28;20072;-68
2021/06/07 07:10:39;;;;;;;3.87;2.20;;;16.00;78.50;;;;;;5054267;28;20052;-69
2021/06/07 07:13:04;;;;;;;6.40;2.03;;;16.10;77.30;;;;;;5054257;28;20567;-69
2021/06/07 07:15:31;;;;;;;4.07;2.03;;;16.10;77.40;;;;;;5053465;28;20049;-70
2021/06/07 07:17:56;;;;;;;3.77;1.97;;;16.20;76.60;;;;;;5054092;28;20133;-71
2021/06/07 07:20:22;;;;;;;3.67;2.07;;;16.20;76.00;;;;;;5054392;28;20523;-71
2021/06/07 07:22:48;;;;;;;2.93;1.40;;;16.20;76.40;;;;;;5053521;28;20508;-71
2021/06/07 07:25:14;;;;;;;2.83;1.60;;;16.20;75.90;;;;;;5054222;28;20075;-71
2021/06/07 07:27:41;;;;;;;4.63;1.60;;;16.30;74.40;;;;;;5053585;28;20166;-71
2021/06/07 07:30:13;;;;;;;3.60;1.80;;;16.30;74.00;;;;;;5054217;28;20056;-71
2021/06/07 07:32:39;;;;;;;;;;;16.30;73.30;;;;;;5054240;28;20572;-71
2021/06/07 07:35:05;;;;;;;5.20;2.27;;;16.40;72.20;;;;;;5052110;28;19921;-71
2021/06/07 07:37:33;;;;;;;3.27;2.30;;;16.40;74.20;;;;;;5052263;28;20081;-71
2021/06/07 07:39:58;;;;;;;4.60;2.40;;;16.40;74.00;;;;;;5053104;28;20057;-71
2021/06/07 07:42:24;;;;;;;4.83;2.43;;;16.40;73.90;;;;;;5051781;28;20127;-72
2021/06/07 07:44:50;;;;;;;4.87;2.40;;;16.50;74.30;;;;;;5053019;28;20459;-71
2021/06/07 07:47:17;;;;;;;4.53;2.50;;;16.50;74.90;;;;;;5052450;28;20052;-71
2021/06/07 07:49:43;;;;;;;5.50;2.50;;;16.60;74.70;;;;;;5052916;28;20045;-71
2021/06/07 07:52:08;;;;;;;5.73;2.70;;;16.60;74.60;;;;;;5053578;28;20064;-71
2021/06/07 07:54:35;;;;;;;7.37;2.80;;;16.70;74.70;;;;;;5053313;28;20052;-71
2021/06/07 07:57:01;;;;;;;4.80;2.53;;;16.70;75.50;;;;;;5052732;28;20485;-70
2021/06/07 07:59:27;;;;;;;6.23;2.87;;;16.70;74.90;;;;;;5053642;28;20073;-70
2021/06/07 08:01:53;;;;;;;4.30;2.53;;;16.70;74.40;;;;;;5053452;28;20076;-71
2021/06/07 08:04:19;;;;;;;4.50;2.57;;;16.80;74.40;;;;;;5052761;28;20416;-71
2021/06/07 08:06:45;;;;;;;5.30;2.90;;;16.90;74.50;;;;;;5053610;28;20048;-71
2021/06/07 08:09:12;;;;;;;5.40;2.37;;;17.00;74.30;;;;;;5053351;28;20461;-71
2021/06/07 08:11:38;;;;;;;4.17;1.77;;;17.00;73.50;;;;;;5051576;28;20053;-71
2021/06/07 08:14:04;;;;;;;3.70;2.17;;;17.10;72.20;;;;;;5052271;28;20041;-71
2021/06/07 08:16:30;;;;;;;2.63;1.93;;;17.20;72.70;;;;;;5053193;28;20045;-71
2021/06/07 08:18:59;;;;;;;3.77;2.17;;;17.40;72.90;;;;;;5052128;28;20148;-72
2021/06/07 08:21:24;;;;;;;6.57;2.00;;;17.60;72.30;;;;;;5052887;28;20049;-72
2021/06/07 08:23:50;;;;;;;5.00;2.30;;;17.70;71.70;;;;;;5052793;28;20106;-72
2021/06/07 08:26:16;;;;;;;4.10;2.10;;;17.70;70.90;;;;;;5052204;28;20049;-73
2021/06/07 08:28:42;;;;;;;4.40;1.80;;;17.70;71.30;;;;;;5053049;28;20519;-73
2021/06/07 08:31:07;;;;;;;3.03;1.90;;;17.80;71.10;;;;;;5052377;28;20497;-73
2021/06/07 08:33:35;;;;;;;4.23;1.90;;;17.90;70.80;;;;;;5052552;28;20067;-73
2021/06/07 08:36:03;;;;;;;4.27;2.40;;;18.00;70.60;;;;;;5053031;28;20049;-72
2021/06/07 08:38:28;;;;;;;4.43;2.00;;;18.00;70.00;;;;;;5051303;28;20049;-72
2021/06/07 08:40:54;;;;;;;4.23;2.30;;;18.00;69.60;;;;;;5053213;28;20131;-72
2021/06/07 08:43:24;;;;;;;4.00;2.13;;;18.10;71.20;;;;;;5052556;28;20065;-72
2021/06/07 08:45:50;;;;;;;3.33;1.97;;;18.30;70.90;;;;;;5052166;28;20062;-72
2021/06/07 08:48:17;;;;;;;4.67;2.20;;;18.50;68.70;;;;;;5052360;28;20055;-72
2021/06/07 08:50:43;;;;;;;4.80;2.73;;;18.50;68.40;;;;;;5052373;28;20336;-73
2021/06/07 08:53:09;;;;;;;4.57;1.97;;;18.60;68.50;;;;;;5051336;28;20443;-73
2021/06/07 08:55:36;;;;;;;3.93;1.57;;;18.60;67.70;;;;;;5052261;28;20387;-74
2021/06/07 08:58:04;;;;;;;6.40;2.00;;;18.60;67.00;;;;;;5052175;28;20478;-73
2021/06/07 09:00:33;;;;;;;4.23;1.50;;;18.60;66.40;;;;;;5051463;28;20079;-73
2021/06/07 09:03:03;;;;;;;3.27;1.37;;;18.60;65.90;;;;;;5052682;28;20048;-72
2021/06/07 09:05:29;;;;;;;5.23;1.87;;;18.60;64.70;;;;;;5051902;28;20455;-72
2021/06/07 09:08:04;;;;;;;5.47;1.73;;;18.60;64.70;;;;;;5051537;28;20045;-73
2021/06/07 09:10:33;;;;;;;6.70;1.83;;;18.60;64.40;;;;;;5050944;28;20075;-73
2021/06/07 09:13:05;;;;;;;2.77;1.50;;;18.60;64.30;;;;;;5052491;28;20148;-73
2021/06/07 09:15:43;;;;;;;4.40;1.70;;;18.70;64.40;;;;;;5051351;28;20470;-73
2021/06/07 09:18:13;;;;;;;2.97;1.90;;;18.80;63.90;;;;;;5052183;28;20075;-72
2021/06/07 09:20:41;;;;;;;3.97;2.17;;;19.00;63.70;;;;;;5050921;28;20148;-73
2021/06/07 09:23:14;;;;;;;3.07;1.70;;;19.20;63.30;;;;;;5050121;28;20057;-73
2021/06/07 09:25:44;;;;;;;4.20;2.30;;;19.40;64.30;;;;;;5049868;28;20128;-74
2021/06/07 09:28:19;;;;;;;5.00;2.30;;;19.60;63.40;;;;;;5049082;28;20122;-73
2021/06/07 09:30:45;;;;;;;4.60;2.17;;;19.70;62.70;;;;;;5049938;28;20083;-73
2021/06/07 09:33:32;;;;;;;4.97;2.10;;;19.90;61.40;;;;;;5050615;28;20553;-73
2021/06/07 09:36:27;;;;;;;4.90;2.60;;;20.00;59.30;;;;;;5050023;28;20431;-73
2021/06/07 09:39:25;;;;;;;7.10;2.80;;;20.10;58.60;;;;;;5051814;28;20438;-73
2021/06/07 09:42:04;;;;;;;4.03;2.63;;;20.20;59.00;;;;;;5046083;28;20060;-73
2021/06/07 09:44:39;;;;;;;5.80;2.90;;;20.30;58.40;;;;;;5051442;28;20059;-73
2021/06/07 09:47:09;;;;;;;4.60;2.53;;;20.30;58.40;;;;;;5051405;28;20045;-74
2021/06/07 09:49:49;;;;;;;6.10;2.33;;;20.40;57.80;;;;;;5050588;28;20056;-73
2021/06/07 09:52:20;;;;;;;3.57;2.40;;;20.40;58.10;;;;;;5051298;28;20076;-74
2021/06/07 09:55:09;;;;;;;4.87;2.50;;;20.40;57.30;;;;;;5051633;28;20052;-74
2021/06/07 09:57:50;;;;;;;4.13;2.20;;;20.50;57.00;;;;;;5050341;28;20049;-74
2021/06/07 10:00:37;;;;;;;4.10;2.30;;;20.40;56.90;;;;;;5051369;28;20045;-74
2021/06/07 10:03:26;;;;;;;6.30;2.57;;;20.40;56.90;;;;;;5050542;28;20477;-74
2021/06/07 10:05:59;;;;;;;4.80;2.50;;;20.40;57.40;;;;;;5051433;28;20046;-74
2021/06/07 10:08:26;;;;;;;5.77;2.60;;;20.40;57.20;;;;;;5050587;28;20171;-73
2021/06/07 10:10:56;;;;;;;7.50;2.83;;;20.40;56.40;;;;;;5050698;28;20052;-73
2021/06/07 10:13:21;;;;;;;4.10;2.70;;;20.30;55.90;;;;;;5050650;28;20049;-73
2021/06/07 10:15:51;;;;;;;3.63;2.27;;;20.30;55.90;;;;;;5051254;28;20413;-73
2021/06/07 10:18:22;;;;;;;5.00;2.17;;;20.30;55.40;;;;;;5049947;28;20052;-73
2021/06/07 10:20:50;;;;;;;;;;;20.30;55.60;;;;;;5051571;28;20060;-73
2021/06/07 10:23:22;;;;;;;4.17;2.30;;;20.30;56.80;;;;;;5050950;28;19925;-73
2021/06/07 10:25:49;;;;;;;4.03;2.03;;;20.30;55.40;;;;;;5050632;28;20064;-72
2021/06/07 10:28:15;;;;;;;3.60;2.10;;;20.40;55.70;;;;;;5049724;28;20479;-74
2021/06/07 10:30:49;;;;;;;6.57;2.37;;;20.50;55.60;;;;;;5050004;28;20048;-72
2021/06/07 10:33:27;;;;;;;4.10;2.17;;;20.50;54.60;;;;;;5049989;28;20067;-72
2021/06/07 10:35:53;;;;;;;3.83;1.90;;;20.50;55.30;;;;;;5050897;28;20064;-73
2021/06/07 10:38:28;;;;;;;4.30;2.30;;;20.60;56.00;;;;;;5048650;28;20071;-73
2021/06/07 10:41:20;;;;;;;6.50;2.10;;;20.70;55.90;;;;;;5047985;28;20069;-72
2021/06/07 10:43:49;;;;;;;6.03;2.43;;;20.60;54.80;;;;;;5049181;28;20126;-73
2021/06/07 10:46:22;;;;;;;6.47;2.80;;;20.70;55.70;;;;;;5047140;28;20081;-74
2021/06/07 10:48:51;;;;;;;5.67;3.03;;;20.70;55.00;;;;;;5050311;28;20075;-74
2021/06/07 10:51:18;;;;;;;3.00;1.90;;;20.70;55.40;;;;;;5030549;28;20394;-74
2021/06/07 10:53:43;;;;;;;4.57;2.97;;;20.60;56.40;;;;;;5030100;28;20053;-74
2021/06/07 10:56:10;;;;;;;5.90;2.87;;;20.70;56.60;;;;;;5030584;28;20484;-74
2021/06/07 10:58:49;;;;;;;4.47;2.03;;;20.80;56.50;;;;;;5030440;28;20077;-75
2021/06/07 11:01:14;;;;;;;5.10;3.80;;;20.90;56.50;;;;;;5030640;28;20149;-74
2021/06/07 11:04:01;;;;;;;4.63;3.37;;;21.00;55.90;;;;;;5030924;28;20128;-73
2021/06/07 11:06:28;;;;;;;5.90;3.30;;;21.00;55.70;;;;;;5030301;28;20061;-74
2021/06/07 11:09:03;;;;;;;4.80;3.80;;;21.00;56.00;;;;;;5030828;28;20053;-74
2021/06/07 11:11:42;;;;;;;5.13;3.40;;;21.00;55.30;;;;;;5030601;28;20046;-74
2021/06/07 11:14:08;;;;;;;3.93;3.00;;;21.10;55.90;;;;;;5029957;28;20572;-73
2021/06/07 11:16:40;;;;;;;4.37;2.63;;;21.20;56.10;;;;;;5030448;28;20081;-74
2021/06/07 11:19:11;;;;;;;4.03;2.60;;;21.20;55.40;;;;;;5030488;28;20366;-74
2021/06/07 11:21:47;;;;;;;3.42;2.20;;;21.20;55.60;;;;;;5029688;28;20049;-74
2021/06/07 11:24:35;;;;;;;1.93;1.60;;;21.30;55.20;;;;;;5030278;28;20478;-73
2021/06/07 11:27:04;;;;;;;4.93;1.70;;;21.30;54.50;;;;;;5027823;28;20553;-75
2021/06/07 11:29:31;;;;;;;5.07;2.13;;;21.30;54.00;;;;;;5028055;28;20045;-75
2021/06/07 11:32:06;;;;;;;6.23;2.07;;;21.30;52.90;;;;;;5027983;28;20061;-74
2021/06/07 11:34:48;;;;;;;5.13;2.57;;;21.30;53.20;;;;;;5027356;28;20410;-73
2021/06/07 11:37:36;;;;;;;4.03;2.23;;;21.30;52.90;;;;;;5028357;28;20403;-74
2021/06/07 11:40:09;;;;;;;4.37;2.40;;;21.30;52.90;;;;;;5028496;28;20068;-72
2021/06/07 11:42:56;;;;;;;3.97;2.00;;;21.40;53.60;;;;;;5028964;28;20064;-73
2021/06/07 11:45:40;;;;;;;5.17;2.10;;;21.40;53.30;;;;;;5030130;28;20053;-73
2021/06/07 11:48:06;;;;;;;5.30;2.80;;;21.40;53.20;;;;;;5029593;28;20553;-73
2021/06/07 11:50:34;;;;;;;5.00;2.80;;;21.40;52.70;;;;;;5033104;28;20140;-71
2021/06/07 11:53:17;;;;;;;5.77;3.17;;;21.40;53.00;;;;;;5033990;28;20045;-72
2021/06/07 11:55:44;;;;;;;4.73;2.53;;;21.30;52.90;;;;;;5033026;28;20053;-72
2021/06/07 11:58:20;;;;;;;5.23;2.23;;;21.30;52.40;;;;;;5033835;28;20045;-72
2021/06/07 12:00:49;;;;;;;3.80;2.30;;;21.30;52.80;;;;;;5033918;28;20057;-71
2021/06/07 12:03:18;;;;;;;2.70;1.60;;;21.40;52.40;;;;;;5033230;28;20053;-72
2021/06/07 12:05:43;;;;;;;5.03;1.33;;;21.50;51.90;;;;;;5033769;28;20051;-71
2021/06/07 12:08:12;;;;;;;4.47;1.10;;;21.60;51.40;;;;;;5033736;28;20050;-72
2021/06/07 12:10:40;;;;;;;1.57;1.30;;;21.70;51.10;;;;;;5032924;28;20077;-72
2021/06/07 12:13:14;;;;;;;2.53;1.50;;;21.70;51.50;;;;;;5033574;28;20054;-71
2021/06/07 12:15:40;;;;;;;2.97;1.50;;;21.70;51.60;;;;;;5033692;28;20050;-72
2021/06/07 12:18:06;;;;;;;2.67;1.60;;;21.70;51.90;;;;;;5033034;28;20144;-72
2021/06/07 12:20:32;;;;;;;3.20;1.70;;;21.80;52.40;;;;;;5033336;28;20076;-72
2021/06/07 12:23:01;;;;;;;3.47;1.90;;;21.90;51.90;;;;;;5033245;28;20057;-70
2021/06/07 12:25:42;;;;;;;4.27;1.60;;;21.90;51.50;;;;;;5033145;28;20045;-72
2021/06/07 12:28:17;;;;;;;2.83;1.40;;;22.00;51.70;;;;;;5032544;28;20080;-71
2021/06/07 12:30:56;;;;;;;3.13;1.23;;;22.00;51.10;;;;;;5032682;28;20115;-71
2021/06/07 12:33:26;;;;;;;6.53;1.47;;;22.00;50.50;;;;;;5032734;28;20124;-72
2021/06/07 12:35:53;;;;;;;3.05;1.08;;;22.00;50.50;;;;;;5048805;28;20070;-72
2021/06/07 12:38:20;;;;;;;1.53;1.13;;;21.90;50.80;;;;;;5051505;28;20049;-71
2021/06/07 12:40:46;;;;;;;6.70;1.60;;;22.00;50.30;;;;;;5053053;28;20045;-72
2021/06/07 12:43:21;;;;;;;4.03;1.63;;;22.10;51.40;;;;;;5052609;28;20055;-72
2021/06/07 12:45:56;;;;;;;2.77;1.60;;;22.10;51.10;;;;;;5052772;28;20107;-72
2021/06/07 12:48:32;;;;;;;3.37;1.53;;;22.10;51.40;;;;;;5052632;28;20111;-72
2021/06/07 12:51:03;;;;;;;3.50;1.52;;;22.10;52.00;;;;;;5052657;28;20382;-72
2021/06/07 12:53:32;;;;;;;2.72;1.77;;;22.20;52.20;;;;;;5051108;28;20481;-72
2021/06/07 12:56:03;;;;;;;2.90;1.80;;;22.30;51.90;;;;;;5047434;28;20048;-72